createdAt,value
2023-05-14T00:00:53.496Z,33.92
2023-05-14T00:03:20.207Z,31.33
2023-05-14T00:05:46.700Z,25.13
2023-05-14T00:08:13.304Z,21.95
2023-05-14T00:10:39.763Z,22.60
2023-05-14T00:13:06.302Z,18.63
2023-05-14T00:15:34.331Z,21.42
2023-05-14T00:18:01.272Z,17.60
2023-05-14T00:20:27.966Z,19.10
2023-05-14T00:22:54.571Z,19.02
2023-05-14T00:25:21.101Z,18.13
2023-05-14T00:27:47.658Z,20.73
2023-05-14T00:30:14.286Z,23.83
2023-05-14T00:32:41.313Z,19.88
2023-05-14T00:35:08.301Z,21.00
2023-05-14T00:37:36.425Z,18.02
2023-05-14T00:40:03.921Z,19.05
2023-05-14T00:42:30.449Z,20.77
2023-05-14T00:44:56.992Z,23.02
2023-05-14T00:47:23.862Z,24.60
2023-05-14T00:49:50.454Z,16.98
2023-05-14T00:52:17.903Z,19.65
2023-05-14T00:54:46.707Z,19.80
2023-05-14T00:57:16.319Z,18.00
2023-05-14T00:59:43.015Z,18.27
2023-05-14T01:02:09.606Z,19.48
2023-05-14T01:04:37.782Z,19.88
2023-05-14T01:07:34.520Z,22.13
2023-05-14T01:10:04.081Z,21.42
2023-05-14T01:12:58.369Z,18.60
2023-05-14T01:15:29.110Z,21.80
2023-05-14T01:18:13.632Z,21.80
2023-05-14T01:20:40.284Z,20.50
2023-05-14T01:23:07.957Z,15.45
2023-05-14T01:25:35.201Z,25.77
2023-05-14T01:28:26.608Z,22.80
2023-05-14T01:31:12.075Z,17.58
2023-05-14T01:33:42.298Z,17.98
2023-05-14T01:36:09.949Z,21.45
2023-05-14T01:38:37.701Z,21.88
2023-05-14T01:41:05.270Z,20.90
2023-05-14T01:47:06.147Z,27.00
2023-05-14T01:49:32.589Z,21.17
2023-05-14T01:51:59.037Z,17.88
2023-05-14T01:54:25.541Z,19.73
2023-05-14T01:56:52.027Z,17.73
2023-05-14T01:59:18.423Z,17.70
2023-05-14T02:01:44.836Z,26.60
2023-05-14T02:04:11.468Z,19.60
2023-05-14T02:06:41.923Z,18.40
2023-05-14T02:09:08.366Z,17.70
2023-05-14T02:11:34.779Z,16.75
2023-05-14T02:14:01.255Z,23.20
2023-05-14T02:16:27.751Z,18.83
2023-05-14T02:18:54.355Z,20.35
2023-05-14T02:21:20.838Z,19.00
2023-05-14T02:23:49.364Z,18.85
2023-05-14T02:26:16.085Z,19.23
2023-05-14T02:28:42.602Z,20.50
2023-05-14T02:31:09.010Z,24.35
2023-05-14T02:33:35.535Z,18.83
2023-05-14T02:36:01.958Z,21.27
2023-05-14T02:38:29.331Z,15.93
2023-05-14T02:40:56.276Z,17.13
2023-05-14T02:43:25.522Z,20.02
2023-05-14T02:45:51.916Z,22.05
2023-05-14T02:48:18.655Z,21.48
2023-05-14T02:50:45.821Z,22.30
2023-05-14T02:53:12.330Z,21.95
2023-05-14T02:55:38.786Z,20.58
2023-05-14T02:58:05.192Z,23.60
2023-05-14T03:00:31.650Z,20.90
2023-05-14T03:02:58.626Z,21.98
2023-05-14T03:05:25.544Z,24.40
2023-05-14T03:07:53.483Z,19.90
2023-05-14T03:10:20.716Z,22.33
2023-05-14T03:12:47.550Z,20.13
2023-05-14T03:15:13.964Z,19.52
2023-05-14T03:17:40.545Z,17.20
2023-05-14T03:20:07.381Z,15.52
2023-05-14T03:22:35.609Z,16.63
2023-05-14T03:25:02.027Z,15.70
2023-05-14T03:27:28.459Z,22.13
2023-05-14T03:29:54.837Z,22.83
2023-05-14T03:32:21.401Z,18.13
2023-05-14T03:34:47.894Z,19.92
2023-05-14T03:37:14.388Z,17.60
2023-05-14T03:39:40.830Z,19.83
2023-05-14T03:42:07.781Z,19.02
2023-05-14T03:44:34.248Z,19.08
2023-05-14T03:47:00.708Z,18.70
2023-05-14T03:49:27.598Z,15.13
2023-05-14T03:51:55.164Z,17.98
2023-05-14T03:54:21.791Z,13.68
2023-05-14T03:56:48.362Z,16.98
2023-05-14T03:59:14.738Z,15.57
2023-05-14T04:01:41.213Z,17.70
2023-05-14T04:04:07.800Z,18.05
2023-05-14T04:06:34.759Z,17.58
2023-05-14T04:09:02.149Z,14.68
2023-05-14T04:11:28.692Z,12.38
2023-05-14T04:13:55.674Z,13.68
2023-05-14T04:16:22.451Z,17.02
2023-05-14T04:18:49.024Z,15.25
2023-05-14T04:21:15.542Z,14.50
2023-05-14T04:23:41.931Z,14.95
2023-05-14T04:26:08.470Z,15.65
2023-05-14T04:28:34.833Z,14.20
2023-05-14T04:31:01.315Z,14.52
2023-05-14T04:33:27.762Z,15.02
2023-05-14T04:35:54.339Z,15.75
2023-05-14T04:38:20.723Z,14.50
2023-05-14T04:40:47.116Z,12.80
2023-05-14T04:43:13.493Z,18.38
2023-05-14T04:45:41.087Z,15.55
2023-05-14T04:48:07.842Z,14.27
2023-05-14T04:50:35.125Z,12.70
2023-05-14T04:53:01.541Z,13.80
2023-05-14T04:55:28.252Z,13.90
2023-05-14T04:57:54.772Z,14.05
2023-05-14T05:00:22.203Z,12.02
2023-05-14T05:02:48.977Z,12.50
2023-05-14T05:05:15.554Z,11.95
2023-05-14T05:07:42.016Z,16.02
2023-05-14T05:10:08.857Z,14.15
2023-05-14T05:12:35.345Z,11.48
2023-05-14T05:15:02.032Z,15.25
2023-05-14T05:17:29.664Z,12.18
2023-05-14T05:19:56.202Z,10.88
2023-05-14T05:22:23.398Z,9.63
2023-05-14T05:24:50.215Z,13.30
2023-05-14T05:27:16.655Z,14.48
2023-05-14T05:29:44.417Z,10.63
2023-05-14T05:32:10.927Z,11.52
2023-05-14T05:34:37.537Z,14.38
2023-05-14T05:37:05.863Z,12.52
2023-05-14T05:39:34.688Z,10.13
2023-05-14T05:42:02.473Z,10.52
2023-05-14T05:44:28.984Z,10.63
2023-05-14T05:46:57.239Z,11.57
2023-05-14T05:49:24.506Z,10.75
2023-05-14T05:51:50.943Z,10.75
2023-05-14T05:54:17.551Z,11.88
2023-05-14T05:56:43.921Z,12.85
2023-05-14T05:59:11.561Z,10.38
2023-05-14T06:01:38.079Z,11.50
2023-05-14T06:04:06.209Z,12.68
2023-05-14T06:06:33.037Z,10.50
2023-05-14T06:08:59.608Z,11.18
2023-05-14T06:11:26.541Z,18.45
2023-05-14T06:13:53.471Z,12.02
2023-05-14T06:16:19.916Z,11.27
2023-05-14T06:18:46.982Z,9.15
2023-05-14T06:21:13.754Z,13.38
2023-05-14T06:23:40.485Z,12.85
2023-05-14T06:26:06.881Z,11.77
2023-05-14T06:28:33.381Z,16.67
2023-05-14T06:30:59.763Z,10.48
2023-05-14T06:33:30.703Z,12.88
2023-05-14T06:35:59.488Z,11.43
2023-05-14T06:38:25.852Z,11.45
2023-05-14T06:40:55.098Z,12.73
2023-05-14T06:43:21.861Z,11.93
2023-05-14T06:45:49.305Z,11.45
2023-05-14T06:48:18.578Z,11.68
2023-05-14T06:50:49.061Z,11.60
2023-05-14T06:53:16.355Z,14.00
2023-05-14T06:55:42.861Z,11.10
2023-05-14T06:58:09.918Z,9.52
2023-05-14T07:00:36.298Z,12.18
2023-05-14T07:03:02.882Z,11.18
2023-05-14T07:05:29.452Z,10.88
2023-05-14T07:07:55.936Z,10.57
2023-05-14T07:10:23.076Z,9.73
2023-05-14T07:12:49.839Z,8.55
2023-05-14T07:15:16.602Z,15.32
2023-05-14T07:17:43.153Z,11.57
2023-05-14T07:20:10.153Z,10.48
2023-05-14T07:22:36.660Z,9.80
2023-05-14T07:25:03.654Z,7.57
2023-05-14T07:27:30.844Z,7.15
2023-05-14T07:29:57.286Z,6.63
2023-05-14T07:32:25.695Z,10.70
2023-05-14T07:34:52.280Z,9.88
2023-05-14T07:37:18.879Z,8.68
2023-05-14T07:39:45.292Z,7.40
2023-05-14T07:42:24.650Z,9.40
2023-05-14T07:44:54.902Z,8.85
2023-05-14T07:47:21.410Z,8.75
2023-05-14T07:49:47.865Z,10.85
2023-05-14T07:52:14.639Z,8.13
2023-05-14T07:54:41.550Z,7.35
2023-05-14T07:57:08.302Z,10.10
2023-05-14T07:59:35.897Z,8.70
2023-05-14T08:02:02.937Z,12.00
2023-05-14T08:04:29.707Z,12.95
2023-05-14T08:06:58.060Z,7.47
2023-05-14T08:09:26.095Z,8.00
2023-05-14T08:11:52.611Z,8.82
2023-05-14T08:14:21.408Z,9.65
2023-05-14T08:16:50.014Z,8.23
2023-05-14T08:19:16.969Z,7.20
2023-05-14T08:21:43.458Z,7.95
2023-05-14T08:24:11.102Z,7.95
2023-05-14T08:26:39.037Z,9.55
2023-05-14T08:29:07.484Z,10.80
2023-05-14T08:31:36.230Z,7.63
2023-05-14T08:34:02.667Z,11.43
2023-05-14T08:36:29.050Z,6.63
2023-05-14T08:38:55.764Z,6.88
2023-05-14T08:41:23.352Z,8.55
2023-05-14T08:44:07.459Z,9.00
2023-05-14T08:46:35.341Z,10.90
2023-05-14T08:49:25.295Z,6.45
2023-05-14T08:51:51.880Z,5.00
2023-05-14T08:54:19.157Z,11.63
2023-05-14T08:56:46.687Z,6.57
2023-05-14T08:59:16.380Z,7.25
2023-05-14T09:01:48.224Z,10.77
2023-05-14T09:04:22.017Z,10.85
2023-05-14T09:06:53.580Z,9.75
2023-05-14T09:09:23.714Z,6.95
2023-05-14T09:11:52.265Z,5.75
2023-05-14T09:14:21.634Z,6.07
2023-05-14T09:16:50.816Z,7.90
2023-05-14T09:19:19.528Z,8.23
2023-05-14T09:21:47.896Z,5.45
2023-05-14T09:24:21.979Z,6.03
2023-05-14T09:26:56.704Z,6.97
2023-05-14T09:29:29.767Z,14.98
2023-05-14T09:31:57.997Z,7.10
2023-05-14T09:34:38.365Z,7.88
2023-05-14T09:37:10.057Z,7.78
2023-05-14T09:39:38.916Z,7.75
2023-05-14T09:42:09.021Z,5.22
2023-05-14T09:44:38.328Z,6.63
2023-05-14T09:47:05.131Z,11.68
2023-05-14T09:49:33.860Z,6.18
2023-05-14T09:52:02.523Z,5.18
2023-05-14T09:54:32.124Z,8.68
2023-05-14T09:56:58.518Z,6.60
2023-05-14T09:59:24.937Z,6.78
2023-05-14T10:01:52.421Z,6.55
2023-05-14T10:04:20.444Z,9.07
2023-05-14T10:06:51.169Z,7.13
2023-05-14T10:09:20.620Z,5.20
2023-05-14T10:11:53.258Z,4.45
2023-05-14T10:14:42.476Z,5.15
2023-05-14T10:17:18.072Z,5.40
2023-05-14T10:19:57.131Z,4.75
2023-05-14T10:22:27.241Z,9.07
2023-05-14T10:24:56.208Z,5.43
2023-05-14T10:27:23.195Z,7.68
2023-05-14T10:29:55.541Z,3.20
2023-05-14T10:32:26.517Z,6.30
2023-05-14T10:34:53.871Z,2.73
2023-05-14T10:37:25.879Z,5.15
2023-05-14T10:39:55.028Z,6.07
2023-05-14T10:42:43.330Z,4.22
2023-05-14T10:45:12.595Z,4.85
2023-05-14T10:47:42.769Z,4.38
2023-05-14T10:50:12.438Z,6.72
2023-05-14T10:52:42.986Z,4.75
2023-05-14T10:55:14.150Z,5.47
2023-05-14T10:57:45.294Z,7.85
2023-05-14T11:00:17.331Z,5.18
2023-05-14T11:02:45.165Z,5.22
2023-05-14T11:05:17.544Z,4.20
2023-05-14T11:07:48.919Z,3.63
2023-05-14T11:10:18.379Z,5.53
2023-05-14T11:12:46.991Z,3.67
2023-05-14T11:15:16.295Z,4.85
2023-05-14T11:17:45.642Z,5.05
2023-05-14T11:20:12.695Z,5.25
2023-05-14T11:22:41.688Z,4.88
2023-05-14T11:25:09.553Z,3.70
2023-05-14T11:27:44.549Z,3.75
2023-05-14T11:30:19.355Z,5.15
2023-05-14T11:32:48.850Z,4.38
2023-05-14T11:35:17.781Z,4.05
2023-05-14T11:37:55.869Z,7.25
2023-05-14T11:40:23.014Z,5.95
2023-05-14T11:42:53.649Z,2.95
2023-05-14T11:45:26.385Z,4.28
2023-05-14T11:47:55.032Z,4.88
2023-05-14T11:50:24.762Z,4.90
2023-05-14T11:52:55.959Z,2.63
2023-05-14T11:55:22.483Z,7.07
2023-05-14T11:57:49.017Z,5.95
2023-05-14T12:00:21.666Z,3.08
2023-05-14T12:02:49.666Z,4.68
2023-05-14T12:05:19.939Z,6.85
2023-05-14T12:07:48.818Z,4.72
2023-05-14T12:10:16.756Z,2.97
2023-05-14T12:12:47.431Z,4.07
2023-05-14T12:15:15.371Z,5.47
2023-05-14T12:17:42.020Z,4.45
2023-05-14T12:20:11.366Z,3.25
2023-05-14T12:22:38.490Z,3.67
2023-05-14T12:25:11.174Z,2.05
2023-05-14T12:27:38.026Z,3.78
2023-05-14T12:30:27.374Z,7.10
2023-05-14T12:32:53.684Z,7.82
2023-05-14T12:35:23.119Z,5.07
2023-05-14T12:37:50.984Z,3.65
2023-05-14T12:40:19.317Z,5.47
2023-05-14T12:42:49.214Z,4.07
2023-05-14T12:45:16.914Z,4.80
2023-05-14T12:47:43.753Z,2.60
2023-05-14T12:50:11.043Z,4.03
2023-05-14T12:52:39.907Z,6.53
2023-05-14T12:55:10.011Z,5.32
2023-05-14T12:57:38.587Z,4.35
2023-05-14T13:00:12.225Z,2.67
2023-05-14T13:02:42.852Z,7.38
2023-05-14T13:05:13.839Z,5.00
2023-05-14T13:07:41.002Z,3.97
2023-05-14T13:10:08.492Z,2.58
2023-05-14T13:12:36.410Z,5.10
2023-05-14T13:15:04.891Z,2.97
2023-05-14T13:17:31.519Z,6.10
2023-05-14T13:20:00.908Z,3.33
2023-05-14T13:22:29.572Z,3.75
2023-05-14T13:24:57.612Z,4.10
2023-05-14T13:27:24.153Z,2.28
2023-05-14T13:29:50.662Z,2.83
2023-05-14T13:32:18.399Z,2.67
2023-05-14T13:34:46.333Z,4.25
2023-05-14T13:37:14.932Z,3.95
2023-05-14T13:39:41.305Z,2.90
2023-05-14T13:42:08.688Z,3.63
2023-05-14T13:44:37.102Z,3.30
2023-05-14T13:47:05.216Z,8.00
2023-05-14T13:49:33.453Z,3.20
2023-05-14T13:51:59.860Z,3.25
2023-05-14T13:54:27.029Z,3.78
2023-05-14T13:56:55.382Z,7.05
2023-05-14T13:59:22.249Z,4.43
2023-05-14T14:01:50.001Z,4.78
2023-05-14T14:04:16.839Z,4.50
2023-05-14T14:06:43.917Z,5.07
2023-05-14T14:09:12.559Z,6.20
2023-05-14T14:11:41.893Z,3.50
2023-05-14T14:14:09.500Z,5.40
2023-05-14T14:16:37.763Z,3.33
2023-05-14T14:19:05.543Z,2.63
2023-05-14T14:21:34.248Z,3.60
2023-05-14T14:24:02.120Z,4.88
2023-05-14T14:26:29.520Z,2.50
2023-05-14T14:28:56.210Z,2.72
2023-05-14T14:31:22.708Z,3.42
2023-05-14T14:33:49.490Z,2.33
2023-05-14T14:36:16.633Z,2.42
2023-05-14T14:38:45.561Z,4.00
2023-05-14T14:41:12.432Z,3.35
2023-05-14T14:43:40.765Z,3.45
2023-05-14T14:46:09.906Z,3.03
2023-05-14T14:48:41.250Z,3.65
2023-05-14T14:51:10.176Z,4.28
2023-05-14T14:53:37.420Z,3.70
2023-05-14T14:56:05.686Z,2.42
2023-05-14T14:58:32.755Z,4.43
2023-05-14T15:01:01.675Z,6.68
2023-05-14T15:03:32.619Z,10.75
2023-05-14T15:05:59.377Z,3.93
2023-05-14T15:08:27.512Z,4.53
2023-05-14T15:10:59.560Z,4.15
2023-05-14T15:13:29.571Z,3.58
2023-05-14T15:15:58.710Z,8.25
2023-05-14T15:18:25.833Z,7.88
2023-05-14T15:20:52.758Z,5.40
2023-05-14T15:23:19.877Z,7.15
2023-05-14T15:25:46.332Z,10.95
2023-05-14T15:28:14.978Z,5.55
2023-05-14T15:30:44.009Z,8.88
2023-05-14T15:33:11.020Z,6.55
2023-05-14T15:38:26.613Z,7.88
2023-05-14T15:40:53.810Z,6.45
2023-05-14T15:43:20.763Z,3.75
2023-05-14T15:45:54.828Z,4.63
2023-05-14T15:48:22.318Z,5.45
2023-05-14T15:50:49.782Z,5.03
2023-05-14T15:53:17.250Z,3.63
2023-05-14T15:55:48.927Z,4.60
2023-05-14T16:00:47.306Z,5.43
2023-05-14T16:03:14.467Z,6.20
2023-05-14T16:05:46.060Z,4.28
2023-05-14T16:08:13.726Z,5.95
2023-05-14T16:10:40.185Z,4.38
2023-05-14T16:13:08.091Z,3.38
2023-05-14T16:15:34.388Z,4.75
2023-05-14T16:18:01.586Z,13.18
2023-05-14T16:20:31.710Z,8.93
2023-05-14T16:22:58.817Z,4.55
2023-05-14T16:25:26.392Z,6.65
2023-05-14T16:27:53.155Z,5.60
2023-05-14T16:30:19.634Z,6.78
2023-05-14T16:32:49.393Z,11.80
2023-05-14T16:35:17.109Z,18.42
2023-05-14T16:37:44.019Z,11.45
2023-05-14T16:40:12.179Z,8.35
2023-05-14T16:42:39.076Z,6.93
2023-05-14T16:45:08.573Z,6.30
2023-05-14T16:47:35.806Z,7.43
2023-05-14T16:50:02.521Z,6.32
2023-05-14T16:52:29.094Z,5.78
2023-05-14T16:54:55.849Z,4.20
2023-05-14T16:57:22.362Z,9.55
2023-05-14T16:59:48.864Z,5.28
2023-05-14T17:02:18.450Z,10.05
2023-05-14T17:04:45.201Z,5.28
2023-05-14T17:07:11.944Z,5.28
2023-05-14T17:09:38.621Z,5.68
2023-05-14T17:12:05.829Z,6.55
2023-05-14T17:14:32.324Z,5.90
2023-05-14T17:16:59.030Z,6.30
2023-05-14T17:19:25.866Z,5.28
2023-05-14T17:21:52.505Z,4.72
2023-05-14T17:24:19.449Z,5.47
2023-05-14T17:26:46.337Z,11.23
2023-05-14T17:29:12.800Z,6.07
2023-05-14T17:31:39.490Z,8.85
2023-05-14T17:34:06.227Z,10.45
2023-05-14T17:36:32.805Z,6.97
2023-05-14T17:38:59.303Z,5.97
2023-05-14T17:41:26.584Z,5.38
2023-05-14T17:43:53.448Z,9.07
2023-05-14T17:46:20.159Z,5.93
2023-05-14T17:48:46.740Z,9.32
2023-05-14T17:51:16.012Z,7.45
2023-05-14T17:53:42.574Z,6.53
2023-05-14T17:56:09.204Z,11.50
2023-05-14T17:58:36.113Z,6.70
2023-05-14T18:01:03.411Z,9.68
2023-05-14T18:03:30.317Z,6.35
2023-05-14T18:05:58.366Z,8.02
2023-05-14T18:08:24.963Z,6.93
2023-05-14T18:10:51.584Z,6.70
2023-05-14T18:13:18.307Z,6.13
2023-05-14T18:15:45.311Z,11.20
2023-05-14T18:18:12.286Z,6.25
2023-05-14T18:20:38.938Z,7.75
2023-05-14T18:23:05.634Z,6.63
2023-05-14T18:25:32.411Z,8.23
2023-05-14T18:27:59.178Z,5.32
2023-05-14T18:30:26.141Z,7.68
2023-05-14T18:32:52.772Z,8.32
2023-05-14T18:35:19.546Z,4.90
2023-05-14T18:37:46.151Z,6.68
2023-05-14T18:40:15.595Z,7.43
2023-05-14T18:42:43.501Z,7.15
2023-05-14T18:45:10.615Z,5.32
2023-05-14T18:47:39.579Z,6.65
2023-05-14T18:50:09.207Z,7.85
2023-05-14T18:52:35.841Z,6.00
2023-05-14T18:55:02.394Z,6.88
2023-05-14T18:57:37.952Z,8.65
2023-05-14T19:00:05.119Z,6.28
2023-05-14T19:02:31.752Z,10.00
2023-05-14T19:04:58.527Z,11.00
2023-05-14T19:07:25.812Z,9.07
2023-05-14T19:09:52.959Z,9.00
2023-05-14T19:12:19.470Z,8.02
2023-05-14T19:14:46.034Z,9.98
2023-05-14T19:17:12.779Z,11.10
2023-05-14T19:19:39.717Z,7.68
2023-05-14T19:22:06.796Z,9.38
2023-05-14T19:24:33.919Z,8.82
2023-05-14T19:27:00.693Z,11.82
2023-05-14T19:29:27.283Z,13.80
2023-05-14T19:31:54.007Z,9.68
2023-05-14T19:34:20.686Z,10.38
2023-05-14T19:36:49.969Z,13.88
2023-05-14T19:39:16.668Z,10.77
2023-05-14T19:41:43.396Z,8.75
2023-05-14T19:44:09.974Z,14.20
2023-05-14T19:46:36.529Z,10.57
2023-05-14T19:49:03.404Z,10.90
2023-05-14T19:51:30.483Z,12.65
2023-05-14T19:54:00.075Z,22.55
2023-05-14T19:56:27.795Z,13.30
2023-05-14T19:58:54.661Z,10.65
2023-05-14T20:01:21.281Z,11.90
2023-05-14T20:03:48.170Z,13.98
2023-05-14T20:06:14.833Z,11.65
2023-05-14T20:08:47.571Z,10.75
2023-05-14T20:11:15.610Z,13.18
2023-05-14T20:13:42.196Z,15.77
2023-05-14T20:16:08.944Z,13.65
2023-05-14T20:18:35.688Z,15.75
2023-05-14T20:21:02.454Z,17.38
2023-05-14T20:23:29.312Z,12.68
2023-05-14T20:25:56.184Z,11.73
2023-05-14T20:28:22.761Z,14.30
2023-05-14T20:30:49.366Z,12.43
2023-05-14T20:33:16.030Z,12.73
2023-05-14T20:35:43.912Z,13.10
2023-05-14T20:38:12.522Z,14.25
2023-05-14T20:40:39.455Z,13.50
2023-05-14T20:43:10.303Z,13.18
2023-05-14T20:45:36.872Z,14.63
2023-05-14T20:48:08.094Z,17.15
2023-05-14T20:50:34.702Z,20.63
2023-05-14T20:53:01.456Z,21.02
2023-05-14T20:55:28.446Z,17.48
2023-05-14T20:57:54.916Z,16.70
2023-05-14T21:00:22.002Z,21.70
2023-05-14T21:02:49.194Z,17.90
2023-05-14T21:05:17.193Z,22.05
2023-05-14T21:07:43.677Z,19.67
2023-05-14T21:10:10.733Z,14.23
2023-05-14T21:12:37.437Z,9.00
2023-05-14T21:15:04.398Z,11.05
2023-05-14T21:17:31.306Z,8.40
2023-05-14T21:19:57.872Z,11.18
2023-05-14T21:22:24.704Z,8.45
2023-05-14T21:24:51.426Z,9.63
2023-05-14T21:27:18.198Z,8.32
2023-05-14T21:29:47.602Z,9.10
2023-05-14T21:32:14.281Z,7.90
2023-05-14T21:34:40.898Z,9.10
2023-05-14T21:37:07.435Z,8.73
2023-05-14T21:39:36.061Z,7.50
2023-05-14T21:42:02.561Z,7.60
2023-05-14T21:44:29.173Z,8.23
2023-05-14T21:46:56.020Z,7.90
2023-05-14T21:49:22.526Z,9.95
2023-05-14T21:51:53.014Z,9.10
2023-05-14T21:54:20.912Z,6.63
2023-05-14T21:56:48.004Z,7.15
2023-05-14T21:59:14.532Z,10.20
2023-05-14T22:01:56.159Z,6.88
2023-05-14T22:04:27.645Z,11.02
2023-05-14T22:06:54.263Z,7.03
2023-05-14T22:09:22.219Z,6.18
2023-05-14T22:11:48.737Z,8.13
2023-05-14T22:14:18.586Z,7.97
2023-05-14T22:16:45.203Z,10.65
2023-05-14T22:19:11.898Z,9.63
2023-05-14T22:21:38.592Z,9.45
2023-05-14T22:24:05.608Z,7.00
2023-05-14T22:26:32.128Z,8.35
2023-05-14T22:28:58.949Z,6.95
2023-05-14T22:31:25.592Z,5.75
2023-05-14T22:33:54.956Z,11.85
2023-05-14T22:36:21.481Z,7.25
2023-05-14T22:38:48.022Z,7.90
2023-05-14T22:41:17.297Z,8.35
2023-05-14T22:46:04.887Z,6.78
2023-05-14T22:48:31.470Z,8.70
2023-05-14T22:50:58.001Z,6.60
2023-05-14T22:53:25.369Z,8.48
2023-05-14T22:55:52.096Z,7.05
2023-05-14T22:58:18.648Z,5.68
2023-05-14T23:00:45.332Z,8.32
2023-05-14T23:03:14.654Z,6.13
2023-05-14T23:05:41.213Z,7.43
2023-05-14T23:08:07.952Z,6.18
2023-05-14T23:10:35.546Z,6.35
2023-05-14T23:13:02.250Z,7.15
2023-05-14T23:15:29.052Z,7.22
2023-05-14T23:17:55.989Z,7.13
2023-05-14T23:20:22.663Z,6.45
2023-05-14T23:22:49.368Z,6.50
2023-05-14T23:25:15.958Z,10.45
2023-05-14T23:27:42.540Z,8.82
2023-05-14T23:30:09.745Z,10.40
2023-05-14T23:32:38.910Z,5.85
2023-05-14T23:35:05.648Z,11.93
2023-05-14T23:37:33.569Z,9.50
2023-05-14T23:40:00.198Z,7.97
2023-05-14T23:42:29.879Z,7.85
2023-05-14T23:44:56.381Z,13.65
2023-05-14T23:47:22.988Z,6.68
2023-05-14T23:49:49.850Z,10.55
2023-05-14T23:52:16.480Z,10.25
2023-05-14T23:54:42.939Z,8.70
2023-05-14T23:57:12.990Z,13.48
2023-05-14T23:59:40.973Z,7.82
